Tiempo atmosférico en la estación meteorológica de Atzeneta Del Maestrat, Castelló/Castellón (420 m.)



Fecha
DESCASC
Temp. máxima en grados centígrados (hora)
DESCASC
Temp. mínima en grados centígrados (hora)
DESCASC
Temp. media en grados centígrados
DESCASC
Racha de viento máxima en m/sg (hora)
DESCASC
Velocidad máxima media en intervalos de 10 minutos(hora)
DESCASC
Precipitaciones diarias en mm
DESCASC
Precipitaciones de 00:00 a 06:00 en mm
DESCASC
Precipitaciones de 06:00 a 12:00 en mm
DESCASC
Precipitaciones de 12:00 a 18:00 en mm
DESCASC
Precipitaciones de 18:00 a 24:00 en mm
DESCASC
14-12-2019 21.5 (13:40) 4.5 (23:50) 13 7.5 (06:50) 5 (07:20) 0 0 0 0 0
13-12-2019 19.3 (14:50) 13.9 (23:59) 16.6 25.56 (04:20) 14.72 (06:20) 0 0 0 0 0
12-12-2019 15.6 (12:30) 4.1 (01:10) 9.9 17.22 (18:30) 8.33 (18:20) 0 0 0 0 0
11-12-2019 15.7 (14:30) 1.6 (00:00) 8.6 14.17 (16:00) 8.61 (16:00) 0 0 0 0 0
10-12-2019 19.9 (15:50) 2.2 (00:00) 11 7.78 (01:20) 3.61 (05:50) 0 0 0 0 0
09-12-2019 16.7 (13:20) 10.4 (00:00) 13.6 24.72 (20:50) 13.61 (20:30) 0 0 0 0 0
08-12-2019 18.3 (14:50) 2.1 (00:00) 10.2 3.61 (14:20) 2.22 (17:30) 0.2 0 0.2 0 0
07-12-2019 17 (14:00) 2.1 (00:00) 9.5 4.17 (15:30) 2.5 (15:50) 0.2 0.2 0 0 0
06-12-2019 15.4 (13:30) 4.9 (00:00) 10.1 2.78 (15:40) 1.94 (15:40) 3.4 1.4 2 0 0
05-12-2019 12.5 (13:40) 8 (00:00) 10.3 6.67 (17:10) 3.89 (17:10) 13 6.8 0.4 0 5.8
04-12-2019 9.1 (14:30) 5.8 (00:00) 7.5 11.11 (19:10) 6.39 (19:20) 62.2 18.8 30 6.2 7.2
03-12-2019 10.9 (14:50) 6.6 (00:00) 8.7 7.78 (16:10) 4.44 (15:00) 4 0 0 0 4
02-12-2019 13.2 (13:20) 4.6 (00:00) 8.9 7.5 (21:40) 4.72 (21:40) 0 0 0 0 0
01-12-2019 17.6 (12:50) 6.2 (00:00) 11.9 6.39 (16:10) 3.89 (16:10) 0 0 0 0 0
30-11-2019 20.8 (13:40) 5.7 (00:00) 13.2 6.39 (15:20) 4.17 (13:50) 0 0 0 0 0
29-11-2019 23.9 (14:10) 10.6 (00:00) 17.3 6.94 (02:40) 4.17 (13:30) 0 0 0 0 0
28-11-2019 21.7 (13:20) 6 (00:00) 13.9 10 (04:40) 5.28 (04:40) 0 0 0 0 0
27-11-2019 22.1 (14:00) 6.5 (00:00) 14.3 6.67 (01:10) 3.89 (17:30) 0 0 0 0 0
26-11-2019 23.3 (14:20) 4.3 (00:00) 13.8 8.89 (23:59) 4.44 (23:59) 0 0 0 0 0
25-11-2019 20.5 (13:30) 4.1 (00:00) 12.3 12.5 (11:20) 7.5 (12:30) 0 0 0 0 0
24-11-2019 16 (15:10) 4.6 (00:00) 10.3 24.44 (09:00) 13.61 (10:00) 0 0 0 0 0
23-11-2019 13.8 (11:40) 7.3 (00:00) 10.6 23.89 (23:10) 13.89 (23:10) 0 0 0 0 0
22-11-2019 16.2 (13:40) 2.5 (00:00) 9.4 9.44 (12:30) 5 (12:30) 2 0 0 1 1
21-11-2019 16.8 (13:50) 0.3 (00:00) 8.5 7.22 (15:00) 4.17 (14:40) 0 0 0 0 0
20-11-2019 15.5 (14:10) 0.2 (00:00) 7.9 6.11 (14:50) 3.61 (16:00) 0 0 0 0 0
19-11-2019 15.7 (15:20) 1.1 (00:00) 8.4 7.22 (16:40) 4.44 (11:50) 0 0 0 0 0
18-11-2019 12.7 (13:40) 2.3 (00:00) 7.5 14.44 (09:50) 8.06 (13:30) 0 0 0 0 0
17-11-2019 18.5 (14:30) 1.9 (00:00) 10.2 7.78 (06:50) 4.17 (18:20) 0 0 0 0 0
16-11-2019 14.5 (15:30) -1.5 (-00:0) 6.5 11.94 (08:40) 6.67 (08:40) 0 0 0 0 0

Gráficas

Temp. máximas Temp. mínimas Temp. medias Precipitaciones Rachas de viento máximas Velocidades máximas media en intervalos de 10 minutos

Datos horarios

Fecha y hora oficial Temperatura (ºC) Velocidad del viento (km/h) Dirección del viento Racha (km/h) Dirección de racha Precipitación (mm) Presión (hPa) Tendencia (hPa) Humedad (%)
2019-12-15 23:00:00 5.2 0 Calma 3 Sudoeste 0 -- -- 91
2019-12-15 22:00:00 6 0 Calma 2 Sudoeste 0 -- -- 89
2019-12-15 21:00:00 6.6 0 Calma 5 Norte 0 -- -- 88
2019-12-15 20:00:00 7.5 0 Calma 2 Norte 0 -- -- 82
2019-12-15 19:00:00 8.7 0 Calma 9 Noroeste 0 -- -- 80
2019-12-15 18:00:00 10.7 4 Norte 8 Norte 0 -- -- 71
2019-12-15 17:00:00 14.7 4 Sur 11 Sur 0 -- -- 57
2019-12-15 16:00:00 17.1 6 Sudeste 12 Sudeste 0 -- -- 48
2019-12-15 15:00:00 17.6 6 Sur 12 Sudeste 0 -- -- 45
2019-12-15 14:00:00 17.6 6 Sudeste 13 Sudeste 0 -- -- 44
2019-12-15 13:00:00 16.5 0 Calma 7 Este 0 -- -- 48
2019-12-15 12:00:00 14.6 0 Calma 4 Este 0 -- -- 51
2019-12-15 11:00:00 11.7 0 Calma 5 Sudoeste 0 -- -- 58
2019-12-15 10:00:00 7.4 2 Oeste 4 Oeste 0 -- -- 83
2019-12-15 09:00:00 2.6 2 Oeste 4 Norte 0 -- -- 97
2019-12-15 08:00:00 2.4 0 Calma 5 Oeste 0 -- -- 95
2019-12-15 07:00:00 2.4 2 Sur 4 Sudeste 0 -- -- 96
2019-12-15 06:00:00 2.5 0 Calma 2 Sur 0 -- -- 96
2019-12-15 05:00:00 2.4 0 Calma 4 Sudoeste 0 -- -- 96
2019-12-15 04:00:00 3 0 Calma 3 Sudoeste 0 -- -- 95
2019-12-15 03:00:00 3.5 0 Calma 4 Sudoeste 0 -- -- 94
2019-12-15 02:00:00 3.9 2 Norte 5 Sudoeste 0 -- -- 93
2019-12-15 01:00:00 4.3 2 Noroeste 5 Oeste 0 -- -- 92
2019-12-15 00:00:00 4.5 3 Oeste 4 Sudoeste 0 -- -- 92
2019-12-14 23:00:00 5.1 3 Oeste 5 Sudeste 0 -- -- 89
2019-12-14 22:00:00 5.6 3 Norte 5 Oeste 0 -- -- 88
2019-12-14 21:00:00 6.3 0 Calma 5 Oeste 0 -- -- 85
2019-12-14 20:00:00 7.6 0 Calma 3 Oeste 0 -- -- 80
2019-12-14 19:00:00 9.8 2 Noroeste 14 Norte 0 -- -- 70
2019-12-14 18:00:00 11.7 4 Noroeste 9 Norte 0 -- -- 67
2019-12-14 17:00:00 16.1 6 Sudoeste 13 Sur 0 -- -- 49
2019-12-14 16:00:00 19.4 8 Sur 19 Sudeste 0 -- -- 41
2019-12-14 15:00:00 20.9 10 Sur 21 Sur 0 -- -- 38
2019-12-14 14:00:00 21.3 12 Sur 21 Sur 0 -- -- 36
2019-12-14 13:00:00 20.9 15 Sur 22 Sur 0 -- -- 36
2019-12-14 12:00:00 20.8 5 Sur 9 Sur 0 -- -- 38
2019-12-14 11:00:00 17.5 4 Este 8 Sur 0 -- -- 47
2019-12-14 10:00:00 14.7 0 Calma 8 Oeste 0 -- -- 50
2019-12-14 09:00:00 10.1 4 Sudoeste 15 Noroeste 0 -- -- 62
2019-12-14 08:00:00 10.8 4 Nordeste 27 Norte 0 -- -- 58
2019-12-14 07:00:00 14.4 17 Norte 27 Norte 0 -- -- 45
2019-12-14 06:00:00 13 12 Norte 26 Noroeste 0 -- -- 51
2019-12-14 05:00:00 12.5 6 Norte 16 Sur 0 -- -- 53
2019-12-14 04:00:00 11.3 5 Sudeste 26 Noroeste 0 -- -- 57
2019-12-14 03:00:00 9.5 8 Sudoeste 13 Sudoeste 0 -- -- 66
2019-12-14 02:00:00 11.9 6 Norte 19 Norte 0 -- -- 57
2019-12-14 01:00:00 10.8 6 Norte 11 Norte 0 -- -- 64
2019-12-14 00:00:00 13.9 0 Calma 32 Norte 0 -- -- 54
2019-12-13 23:00:00 16.2 16 Norte 44 Norte 0 -- -- 49
2019-12-13 22:00:00 16.7 26 Noroeste 50 Noroeste 0 -- -- 52
2019-12-13 21:00:00 17 27 Noroeste 45 Noroeste 0 -- -- 53
2019-12-13 20:00:00 16.6 7 Noroeste 22 Noroeste 0 -- -- 55
2019-12-13 19:00:00 17 9 Noroeste 27 Norte 0 -- -- 53
2019-12-13 18:00:00 17.5 15 Noroeste 38 Noroeste 0 -- -- 51
2019-12-13 17:00:00 18.6 12 Noroeste 26 Noroeste 0 -- -- 48
2019-12-13 16:00:00 19 6 Norte 47 Norte 0 -- -- 47
2019-12-13 15:00:00 19.2 27 Norte 62 Noroeste 0 -- -- 46
2019-12-13 14:00:00 19.2 20 Noroeste 46 Oeste 0 -- -- 46
2019-12-13 13:00:00 18.7 24 Noroeste 57 Norte 0 -- -- 47
2019-12-13 12:00:00 18.5 21 Noroeste 78 Noroeste 0 -- -- 48
2019-12-13 11:00:00 18.3 45 Noroeste 89 Noroeste 0 -- -- 47
2019-12-13 10:00:00 18.2 41 Noroeste 76 Noroeste 0 -- -- 46
2019-12-13 09:00:00 17.9 48 Noroeste 81 Noroeste 0 -- -- 46
2019-12-13 08:00:00 18.1 53 Noroeste 88 Noroeste 0 -- -- 48
2019-12-13 07:00:00 18.3 50 Noroeste 85 Noroeste 0 -- -- 49
2019-12-13 06:00:00 17.6 42 Noroeste 81 Noroeste 0 -- -- 53
2019-12-13 05:00:00 17.5 46 Noroeste 92 Noroeste 0 -- -- 52
2019-12-13 04:00:00 17.4 41 Noroeste 76 Noroeste 0 -- -- 51
2019-12-13 03:00:00 17 34 Noroeste 72 Noroeste 0 -- -- 52
2019-12-13 02:00:00 16.4 30 Noroeste 65 Noroeste 0 -- -- 53
2019-12-13 01:00:00 15.6 22 Noroeste 67 Norte 0 -- -- 54
2019-12-13 00:00:00 15 12 Nordeste 41 Sudoeste 0 -- -- 53
2019-12-12 23:00:00 14.4 14 Oeste 56 Oeste 0 -- -- 53
2019-12-12 22:00:00 13 17 Sudoeste 55 Noroeste 0 -- -- 55
2019-12-12 21:00:00 13.6 20 Noroeste 59 Noroeste 0 -- -- 52
2019-12-12 20:00:00 13.4 23 Noroeste 48 Noroeste 0 -- -- 51
2019-12-12 19:00:00 12.2 14 Noroeste 62 Oeste 0 -- -- 52
2019-12-12 18:00:00 11.7 25 Noroeste 53 Noroeste 0 -- -- 55
2019-12-12 17:00:00 12.1 12 Oeste 44 Noroeste 0 -- -- 52
2019-12-12 16:00:00 13.4 7 Oeste 35 Noroeste 0 -- -- 47
2019-12-12 15:00:00 14.4 6 Noroeste 23 Noroeste 0 -- -- 44
2019-12-12 14:00:00 14.9 5 Oeste 27 Noroeste 0 -- -- 41
2019-12-12 13:00:00 14.8 6 Sudoeste 23 Noroeste 0 -- -- 45
2019-12-12 12:00:00 14.5 4 Sur 18 Sudeste 0 -- -- 47
2019-12-12 11:00:00 10.6 2 Sudeste 10 Sudoeste 0 -- -- 58
2019-12-12 10:00:00 8.3 0 Calma 6 Noroeste 0 -- -- 65
2019-12-12 09:00:00 6.5 5 Oeste 11 Sudeste 0 -- -- 67
2019-12-12 08:00:00 8.1 2 Oeste 23 Noroeste 0 -- -- 57
2019-12-12 07:00:00 8.4 5 Oeste 21 Noroeste 0 -- -- 57
2019-12-12 06:00:00 7.4 8 Oeste 16 Sur 0 -- -- 60
2019-12-12 05:00:00 7.1 2 Norte 14 Noroeste 0 -- -- 60
2019-12-12 04:00:00 5.2 3 Oeste 10 Noroeste 0 -- -- 69
2019-12-12 03:00:00 7.6 10 Noroeste 25 Norte 0 -- -- 57
2019-12-12 02:00:00 4.8 3 Sudoeste 12 Oeste 0 -- -- 68
2019-12-12 01:00:00 4.8 2 Sudeste 17 Noroeste 0 -- -- 67
2019-12-12 00:00:00 5 3 Sudoeste 13 Norte 0 -- -- 66
2019-12-11 23:00:00 6 3 Noroeste 13 Oeste 0 -- -- 61
2019-12-11 22:00:00 8.7 2 Este 41 Noroeste 0 -- -- 53
2019-12-11 21:00:00 8 8 Oeste 27 Noroeste 0 -- -- 55
2019-12-11 20:00:00 10.1 22 Noroeste 38 Noroeste 0 -- -- 51
2019-12-11 19:00:00 10.7 14 Norte 49 Norte 0 -- -- 52
2019-12-11 18:00:00 10.5 14 Norte 50 Norte 0 -- -- 54
2019-12-11 17:00:00 11.7 13 Norte 44 Noroeste 0 -- -- 55
2019-12-11 16:00:00 13.1 31 Norte 51 Norte 0 -- -- 54
2019-12-11 15:00:00 15.5 14 Norte 27 Norte 0 -- -- 50
2019-12-11 14:00:00 14.1 8 Noroeste 11 Norte 0 -- -- 55
2019-12-11 13:00:00 14 6 Oeste 10 Oeste 0 -- -- 51
2019-12-11 12:00:00 15.3 3 Noroeste 8 Sudeste 0 -- -- 46
2019-12-11 11:00:00 12.5 2 Sudoeste 6 Sudoeste 0 -- -- 46
2019-12-11 10:00:00 8.1 2 Oeste 9 Sudeste 0 -- -- 60
2019-12-11 09:00:00 3.6 5 Norte 8 Norte 0 -- -- 80
2019-12-11 08:00:00 2 3 Noroeste 8 Sudoeste 0 -- -- 82
2019-12-11 07:00:00 2.1 3 Sudeste 5 Oeste 0 -- -- 82
2019-12-11 06:00:00 2.4 0 Calma 4 Oeste 0 -- -- 80
2019-12-11 05:00:00 1.9 0 Calma 5 Este 0 -- -- 84
2019-12-11 04:00:00 2.2 3 Oeste 5 Sudoeste 0 -- -- 81
2019-12-11 03:00:00 2.4 0 Calma 5 Oeste 0 -- -- 83
2019-12-11 02:00:00 2.8 2 Sudoeste 8 Norte 0 -- -- 82
2019-12-11 01:00:00 2.6 0 Calma 4 Norte 0 -- -- 84
2019-12-11 00:00:00 3 3 Oeste 7 Noroeste 0 -- -- 83
2019-12-10 23:00:00 3.7 0 Calma 5 Noroeste 0 -- -- 82
2019-12-10 22:00:00 4.4 2 Noroeste 6 Oeste 0 -- -- 81
2019-12-10 21:00:00 5 2 Nordeste 8 Oeste 0 -- -- 78
2019-12-10 20:00:00 6.3 4 Nordeste 10 Noroeste 0 -- -- 76
2019-12-10 19:00:00 8 0 Calma 10 Sudeste 0 -- -- 74
2019-12-10 18:00:00 11 4 Sudeste 12 Norte 0 -- -- 62
2019-12-10 17:00:00 18.1 0 Calma 11 Sudoeste 0 -- -- 40
2019-12-10 16:00:00 19.9 2 Sudoeste 8 Sur 0 -- -- 31
2019-12-10 15:00:00 19.4 2 Sur 6 Sudoeste 0 -- -- 29
2019-12-10 14:00:00 18.7 4 Sudoeste 8 Oeste 0 -- -- 34
2019-12-10 13:00:00 17.2 0 Calma 6 Noroeste 0 -- -- 30
2019-12-10 12:00:00 15.7 0 Calma 11 Sudoeste 0 -- -- 32
2019-12-10 11:00:00 13.3 5 Oeste 10 Sudeste 0 -- -- 44
2019-12-10 10:00:00 8.7 4 Oeste 8 Oeste 0 -- -- 54
2019-12-10 09:00:00 2.8 6 Sudoeste 11 Norte 0 -- -- 78
2019-12-10 08:00:00 3 5 Este 17 Nordeste 0 -- -- 72
2019-12-10 07:00:00 3.2 3 Norte 13 Noroeste 0 -- -- 73
2019-12-10 06:00:00 5.7 6 Noroeste 26 Norte 0 -- -- 59
2019-12-10 05:00:00 4.3 6 Norte 16 Nordeste 0 -- -- 69
2019-12-10 04:00:00 4.5 3 Oeste 13 Sudoeste 0 -- -- 69
2019-12-10 03:00:00 5.6 7 Oeste 13 Oeste 0 -- -- 63
2019-12-10 02:00:00 7 9 Sudoeste 28 Nordeste 0 -- -- 62
2019-12-10 01:00:00 9.9 11 Este 28 Este 0 -- -- 51
2019-12-10 00:00:00 10.4 8 Sudoeste 44 Norte 0 -- -- 45
2019-12-09 23:00:00 11.5 17 Oeste 58 Noroeste 0 -- -- 44
2019-12-09 22:00:00 11.9 28 Norte 73 Norte 0 -- -- 45
2019-12-09 21:00:00 12.2 41 Norte 89 Norte 0 -- -- 47
2019-12-09 20:00:00 12.4 42 Norte 82 Norte 0 -- -- 48
2019-12-09 19:00:00 12.8 36 Norte 73 Norte 0 -- -- 48
2019-12-09 18:00:00 12.2 8 Noroeste 38 Norte 0 -- -- 52
2019-12-09 17:00:00 14.1 18 Norte 40 Noroeste 0 -- -- 46
2019-12-09 16:00:00 15.5 21 Norte 50 Norte 0 -- -- 40
2019-12-09 15:00:00 16.3 14 Norte 53 Norte 0 -- -- 39
2019-12-09 14:00:00 16.3 26 Noroeste 49 Noroeste 0 -- -- 35
2019-12-09 13:00:00 16.2 26 Noroeste 50 Noroeste 0 -- -- 37
2019-12-09 12:00:00 16.2 19 Norte 40 Norte 0 -- -- 37
2019-12-09 11:00:00 15.5 26 Norte 42 Norte 0 -- -- 33
2019-12-09 10:00:00 15.2 14 Nordeste 39 Noroeste 0 -- -- 33
2019-12-09 09:00:00 11.3 4 Sur 30 Norte 0 -- -- 40
2019-12-09 08:00:00 12.6 21 Noroeste 36 Noroeste 0 -- -- 35
2019-12-09 07:00:00 11.4 9 Noroeste 26 Noroeste 0 -- -- 37
2019-12-09 06:00:00 11.9 12 Nordeste 27 Norte 0 -- -- 38
2019-12-09 05:00:00 12.7 12 Norte 37 Noroeste 0 -- -- 38
2019-12-09 04:00:00 12.4 6 Este 30 Nordeste 0 -- -- 43
2019-12-09 03:00:00 12.1 13 Noroeste 28 Noroeste 0 -- -- 50
2019-12-09 02:00:00 12.5 17 Noroeste 26 Oeste 0 -- -- 53
2019-12-09 01:00:00 10.9 5 Oeste 18 Noroeste 0 -- -- 81
2019-12-09 00:00:00 10.5 5 Sudoeste 13 Noroeste 0 -- -- 87
2019-12-08 23:00:00 10.8 3 Nordeste 9 Sudoeste 0 -- -- 85
2019-12-08 22:00:00 10.6 4 Sudoeste 10 Sudoeste 0 -- -- 85
2019-12-08 21:00:00 10.2 2 Sudoeste 6 Norte 0 -- -- 88
2019-12-08 20:00:00 10.4 3 Este 10 Noroeste 0 -- -- 85
2019-12-08 19:00:00 10.8 0 Calma 7 Sudeste 0 -- -- 85
2019-12-08 18:00:00 12.2 2 Oeste 12 Noroeste 0 -- -- 78
2019-12-08 17:00:00 16 4 Nordeste 7 Sudeste 0 -- -- 63
2019-12-08 16:00:00 17.8 4 Sudeste 12 Sudeste 0 -- -- 57
2019-12-08 15:00:00 18.3 5 Sudeste 13 Sudeste 0 -- -- 51
2019-12-08 14:00:00 18.1 6 Sudeste 10 Sudeste 0 -- -- 51
2019-12-08 13:00:00 17.2 0 Calma 6 Este 0 -- -- 55
2019-12-08 12:00:00 14.4 0 Calma 5 Sur 0 -- -- 64
2019-12-08 11:00:00 11.9 2 Sudeste 4 Sudeste 0 -- -- 73
2019-12-08 10:00:00 7.6 0 Calma 2 Nordeste 0.2 -- -- 100
2019-12-08 09:00:00 4.1 0 Calma 3 Sudoeste 0 -- -- 100
2019-12-08 08:00:00 2.1 0 Calma 4 Norte 0 -- -- 100
2019-12-08 07:00:00 2.6 0 Calma 2 Noroeste 0 -- -- 100
2019-12-08 06:00:00 2.7 0 Calma 2 Sudeste 0 -- -- 100
2019-12-08 05:00:00 2.8 0 Calma 2 Oeste 0 -- -- 99
2019-12-08 04:00:00 3 0 Calma 5 Oeste 0 -- -- 99
2019-12-08 03:00:00 3.1 4 Oeste 4 Oeste 0 -- -- 99
2019-12-08 02:00:00 3.7 0 Calma 4 Norte 0 -- -- 99
2019-12-08 01:00:00 4 0 Calma 3 Oeste 0 -- -- 99
2019-12-08 00:00:00 4.4 0 Calma 5 Noroeste 0 -- -- 98
2019-12-07 23:00:00 4.9 0 Calma 3 Norte 0 -- -- 98
2019-12-07 22:00:00 5.7 2 Noroeste 4 Norte 0 -- -- 98
2019-12-07 21:00:00 6.1 0 Calma 4 Norte 0 -- -- 96
2019-12-07 20:00:00 7.2 0 Calma 5 Noroeste 0 -- -- 95
2019-12-07 19:00:00 8.7 4 Noroeste 10 Noroeste 0 -- -- 91
2019-12-07 18:00:00 10.7 6 Noroeste 9 Sudeste 0 -- -- 86
2019-12-07 17:00:00 14.7 3 Sur 15 Sur 0 -- -- 69
2019-12-07 16:00:00 16.4 9 Sur 15 Sudeste 0 -- -- 61
2019-12-07 15:00:00 16.7 7 Sudeste 14 Sur 0 -- -- 57
2019-12-07 14:00:00 17 9 Sudeste 15 Sudeste 0 -- -- 59
2019-12-07 13:00:00 16.1 3 Sudeste 6 Sur 0 -- -- 62
2019-12-07 12:00:00 13.6 0 Calma 5 Sur 0 -- -- 67
2019-12-07 11:00:00 10 0 Calma 4 Oeste 0 -- -- 99
2019-12-07 10:00:00 7 2 Sudoeste 4 Sudoeste 0 -- -- 100
2019-12-07 09:00:00 3.7 0 Calma 4 Oeste 0 -- -- 100
2019-12-07 08:00:00 2.3 0 Calma 3 Norte 0 -- -- 100
2019-12-07 07:00:00 2.7 0 Calma 2 Noroeste 0 -- -- 100
2019-12-07 06:00:00 2.9 0 Calma 4 Oeste 0 -- -- 100
2019-12-07 05:00:00 3.1 0 Calma 3 Sudoeste 0 -- -- 100
2019-12-07 04:00:00 3.3 0 Calma 5 Norte 0 -- -- 100
2019-12-07 03:00:00 3.6 0 Calma 6 Noroeste 0.2 -- -- 99
2019-12-07 02:00:00 4 2 Oeste 4 Oeste 0 -- -- 100
2019-12-07 01:00:00 4.4 0 Calma 6 Noroeste 0 -- -- 99
2019-12-07 00:00:00 4.9 0 Calma 5 Norte 0 -- -- 99
2019-12-06 23:00:00 5.7 3 Noroeste 5 Noroeste 0 -- -- 99
2019-12-06 22:00:00 6.4 0 Calma 3 Sudoeste 0 -- -- 98
2019-12-06 21:00:00 8 0 Calma 5 Noroeste 0 -- -- 97
2019-12-06 20:00:00 8 0 Calma 6 Sudoeste 0 -- -- 97
2019-12-06 19:00:00 9 4 Sur 7 Noroeste 0 -- -- 94
2019-12-06 18:00:00 11.1 2 Sudoeste 6 Sudeste 0 -- -- 90
2019-12-06 17:00:00 12.4 3 Sudeste 9 Sudoeste 0 -- -- 85
2019-12-06 16:00:00 13.3 5 Sur 10 Sur 0 -- -- 80
2019-12-06 15:00:00 13.8 3 Sur 7 Sur 0 -- -- 76
2019-12-06 14:00:00 14.9 3 Sudoeste 8 Sudeste 0 -- -- 73
2019-12-06 13:00:00 13.4 3 Nordeste 8 Nordeste 0 -- -- 85
2019-12-06 12:00:00 12 0 Calma 3 Sur 0 -- -- 91
2019-12-06 11:00:00 10.4 2 Oeste 4 Sudoeste 0 -- -- 97
2019-12-06 10:00:00 9.8 0 Calma 2 Norte 0 -- -- 99
2019-12-06 09:00:00 9.1 0 Calma 4 Sudoeste 1 -- -- 99
2019-12-06 08:00:00 9 0 Calma 2 Sudoeste 0.4 -- -- 99
2019-12-06 07:00:00 8.9 0 Calma 5 Oeste 0.6 -- -- 99
2019-12-06 06:00:00 8.9 0 Calma 4 Norte 0 -- -- 98
2019-12-06 05:00:00 9 0 Calma 3 Sudeste 0.2 -- -- 98
2019-12-06 04:00:00 8.9 2 Oeste 5 Oeste 0.2 -- -- 98
2019-12-06 03:00:00 8.9 2 Oeste 3 Oeste 0 -- -- 98
2019-12-06 02:00:00 8.8 0 Calma 3 Oeste 0.6 -- -- 98
2019-12-06 01:00:00 8.8 0 Calma 4 Oeste 0.4 -- -- 98
2019-12-06 00:00:00 8.7 2 Sudoeste 3 Oeste 2.2 -- -- 97
2019-12-05 23:00:00 8.8 0 Calma 6 Sudeste 2.4 -- -- 96
2019-12-05 22:00:00 9.2 2 Sudeste 9 Nordeste 0 -- -- 93
2019-12-05 21:00:00 9.5 4 Nordeste 12 Norte 1 -- -- 89
2019-12-05 20:00:00 10.5 8 Norte 22 Norte 0.2 -- -- 84
2019-12-05 19:00:00 10.6 5 Norte 22 Norte 0 -- -- 80
2019-12-05 18:00:00 10.9 9 Norte 24 Norte 0 -- -- 80
2019-12-05 17:00:00 11.6 9 Nordeste 22 Nordeste 0 -- -- 75
2019-12-05 16:00:00 12.2 6 Nordeste 22 Nordeste 0 -- -- 73
2019-12-05 15:00:00 11.9 13 Nordeste 23 Este 0 -- -- 77
2019-12-05 14:00:00 12.3 8 Este 12 Este 0 -- -- 80
2019-12-05 13:00:00 11.3 4 Nordeste 15 Nordeste 0 -- -- 85
2019-12-05 12:00:00 10.7 8 Nordeste 15 Nordeste 0 -- -- 85
2019-12-05 11:00:00 10.1 5 Nordeste 11 Nordeste 0 -- -- 89
2019-12-05 10:00:00 9 7 Nordeste 12 Este 0 -- -- 94
2019-12-05 09:00:00 8.6 5 Nordeste 10 Este 0.2 -- -- 96
2019-12-05 08:00:00 8.5 4 Este 13 Norte 0 -- -- 97
2019-12-05 07:00:00 8.5 6 Nordeste 13 Nordeste 0.2 -- -- 97
2019-12-05 06:00:00 9.3 8 Nordeste 18 Norte 0 -- -- 95
2019-12-05 05:00:00 9 8 Nordeste 21 Norte 0.2 -- -- 98
2019-12-05 04:00:00 9 8 Norte 14 Norte 0.4 -- -- 98
2019-12-05 03:00:00 9.1 9 Norte 18 Nordeste 0.2 -- -- 98
2019-12-05 02:00:00 8.6 7 Nordeste 14 Nordeste 0.6 -- -- 100
2019-12-05 01:00:00 8 0 Calma 8 Nordeste 5.4 -- -- 100
2019-12-05 00:00:00 8 3 Nordeste 6 Este 1.6 -- -- 100
2019-12-04 23:00:00 7.9 0 Calma 8 Nordeste 3 -- -- 99
2019-12-04 22:00:00 8 5 Este 15 Norte 1.6 -- -- 99
2019-12-04 21:00:00 8.2 9 Nordeste 27 Norte 0.6 -- -- 98
2019-12-04 20:00:00 8.2 13 Norte 40 Norte 0.2 -- -- 99
2019-12-04 19:00:00 8.2 14 Nordeste 27 Norte 0.2 -- -- 98
2019-12-04 18:00:00 8 9 Nordeste 24 Nordeste 1.6 -- -- 98
2019-12-04 17:00:00 8 9 Norte 20 Norte 2 -- -- 98
2019-12-04 16:00:00 8.1 13 Norte 27 Norte 1.4 -- -- 98
2019-12-04 15:00:00 8.7 13 Norte 26 Nordeste 0.6 -- -- 96
2019-12-04 14:00:00 8.4 5 Norte 22 Norte 0 -- -- 99
2019-12-04 13:00:00 7.2 5 Norte 34 Norte 0.6 -- -- 99
2019-12-04 12:00:00 6.6 18 Norte 36 Norte 3.6 -- -- 99
2019-12-04 11:00:00 6 17 Norte 30 Norte 5.2 -- -- 99
2019-12-04 10:00:00 6.3 14 Norte 35 Norte 3.6 -- -- 99
2019-12-04 09:00:00 6.4 13 Norte 29 Norte 2.6 -- -- 99
2019-12-04 08:00:00 6.5 10 Norte 27 Norte 6.8 -- -- 99
2019-12-04 07:00:00 7.1 17 Norte 37 Norte 8.2 -- -- 99
2019-12-04 06:00:00 7 18 Norte 37 Norte 3.6 -- -- 98
2019-12-04 05:00:00 6.9 12 Norte 30 Nordeste 2.8 -- -- 98
2019-12-04 04:00:00 6.8 9 Norte 31 Norte 3.8 -- -- 98
2019-12-04 03:00:00 6.6 9 Nordeste 38 Norte 4.6 -- -- 98
2019-12-04 02:00:00 7.7 12 Norte 30 Norte 0.6 -- -- 96
2019-12-04 01:00:00 7.5 12 Norte 25 Norte 3.4 -- -- 96
2019-12-04 00:00:00 7.9 5 Nordeste 15 Norte 1.4 -- -- 93
2019-12-03 23:00:00 7.1 3 Sudoeste 6 Oeste 0.2 -- -- 93
2019-12-03 22:00:00 7.3 2 Este 15 Norte 0.6 -- -- 90
2019-12-03 21:00:00 6.9 3 Nordeste 19 Noroeste 0.2 -- -- 89
2019-12-03 20:00:00 6.9 7 Norte 17 Norte 1.6 -- -- 88
2019-12-03 19:00:00 8 10 Norte 22 Norte 0 -- -- 74
2019-12-03 18:00:00 8.9 11 Nordeste 28 Norte 0 -- -- 61
2019-12-03 17:00:00 9.4 14 Norte 28 Norte 0 -- -- 60
2019-12-03 16:00:00 10.3 13 Norte 24 Norte 0 -- -- 56
2019-12-03 15:00:00 10.9 16 Norte 24 Norte 0 -- -- 54
2019-12-03 14:00:00 9.8 9 Nordeste 17 Nordeste 0 -- -- 58
2019-12-03 13:00:00 10 10 Nordeste 15 Nordeste 0 -- -- 57
2019-12-03 12:00:00 9.6 8 Nordeste 16 Norte 0 -- -- 57
2019-12-03 11:00:00 8.8 10 Norte 16 Nordeste 0 -- -- 58
2019-12-03 10:00:00 8.1 5 Norte 22 Norte 0 -- -- 61
2019-12-03 09:00:00 7.7 13 Norte 22 Norte 0 -- -- 61
2019-12-03 08:00:00 7.6 8 Nordeste 20 Norte 0 -- -- 62
2019-12-03 07:00:00 7.6 9 Nordeste 22 Norte 0 -- -- 62
2019-12-03 06:00:00 7.6 5 Este 15 Nordeste 0 -- -- 63
2019-12-03 05:00:00 7.6 6 Nordeste 13 Este 0 -- -- 67
2019-12-03 04:00:00 7.2 5 Nordeste 15 Nordeste 0 -- -- 71
2019-12-03 03:00:00 6.6 0 Calma 10 Nordeste 0 -- -- 74
2019-12-03 02:00:00 8.3 5 Nordeste 12 Nordeste 0 -- -- 68
2019-12-03 01:00:00 9.4 5 Nordeste 17 Nordeste 0 -- -- 65
2019-12-03 00:00:00 10.3 8 Nordeste 18 Nordeste 0 -- -- 63
2019-12-02 23:00:00 10.6 10 Norte 22 Norte 0 -- -- 65
2019-12-02 22:00:00 10.9 13 Norte 27 Norte 0 -- -- 64
2019-12-02 21:00:00 11 5 Nordeste 21 Nordeste 0 -- -- 65
2019-12-02 20:00:00 11.2 8 Nordeste 22 Nordeste 0 -- -- 63
2019-12-02 19:00:00 11.3 7 Norte 19 Norte 0 -- -- 62
2019-12-02 18:00:00 10.8 0 Calma 8 Este 0 -- -- 72
2019-12-02 17:00:00 11.6 4 Este 8 Este 0 -- -- 67
2019-12-02 16:00:00 11.9 3 Nordeste 11 Este 0 -- -- 62
2019-12-02 15:00:00 12.3 8 Este 15 Este 0 -- -- 59
2019-12-02 14:00:00 12.8 13 Nordeste 19 Nordeste 0 -- -- 56
2019-12-02 13:00:00 12.5 6 Nordeste 14 Nordeste 0 -- -- 61
2019-12-02 12:00:00 11.4 7 Nordeste 16 Nordeste 0 -- -- 65
2019-12-02 11:00:00 10.4 7 Norte 17 Nordeste 0 -- -- 71
2019-12-02 10:00:00 8.9 0 Calma 14 Nordeste 0 -- -- 78
2019-12-02 09:00:00 9.4 6 Nordeste 12 Norte 0 -- -- 74
2019-12-02 08:00:00 9.6 10 Nordeste 23 Norte 0 -- -- 68
2019-12-02 07:00:00 9.3 9 Nordeste 22 Norte 0 -- -- 69
2019-12-02 06:00:00 5.8 5 Nordeste 11 Nordeste 0 -- -- 87
2019-12-02 05:00:00 4.9 2 Noroeste 9 Noroeste 0 -- -- 89
2019-12-02 04:00:00 5.7 4 Norte 7 Noroeste 0 -- -- 85
2019-12-02 03:00:00 5.4 0 Calma 4 Oeste 0 -- -- 87
2019-12-02 02:00:00 6 0 Calma 8 Este 0 -- -- 88
2019-12-02 01:00:00 6.1 2 Oeste 4 Sudeste 0 -- -- 89
2019-12-02 00:00:00 6.7 0 Calma 9 Noroeste 0 -- -- 88
2019-12-01 23:00:00 7.2 6 Noroeste 9 Noroeste 0 -- -- 90
2019-12-01 22:00:00 8.1 0 Calma 5 Noroeste 0 -- -- 85
2019-12-01 21:00:00 9.9 5 Noroeste 9 Noroeste 0 -- -- 81
2019-12-01 20:00:00 10.6 0 Calma 3 Norte 0 -- -- 82
2019-12-01 19:00:00 11.3 0 Calma 9 Sudeste 0 -- -- 79
2019-12-01 18:00:00 11.6 5 Sudeste 13 Sur 0 -- -- 79
2019-12-01 17:00:00 12.6 9 Sur 23 Sudeste 0 -- -- 76
2019-12-01 16:00:00 16 13 Sudeste 21 Sudeste 0 -- -- 62
2019-12-01 15:00:00 15.9 11 Sur 18 Sudeste 0 -- -- 59
2019-12-01 14:00:00 16.4 5 Sudoeste 14 Sur 0 -- -- 53
2019-12-01 13:00:00 16.9 9 Sur 17 Sudeste 0 -- -- 54
2019-12-01 12:00:00 16.2 11 Sur 16 Sur 0 -- -- 62
2019-12-01 11:00:00 11.3 0 Calma 5 Sudeste 0 -- -- 69
2019-12-01 10:00:00 10.9 0 Calma 5 Sur 0 -- -- 70
2019-12-01 09:00:00 9.5 3 Este 6 Sudeste 0 -- -- 79
2019-12-01 08:00:00 8.7 2 Noroeste 5 Noroeste 0 -- -- 83
2019-12-01 07:00:00 8.7 0 Calma 5 Sur 0 -- -- 82
2019-12-01 06:00:00 8.9 4 Oeste 6 Oeste 0 -- -- 79
2019-12-01 05:00:00 9.9 4 Sudoeste 13 Nordeste 0 -- -- 72
2019-12-01 04:00:00 10.4 6 Este 14 Norte 0 -- -- 68
2019-12-01 03:00:00 11.4 7 Norte 18 Norte 0 -- -- 70
2019-12-01 02:00:00 7.4 0 Calma 12 Oeste 0 -- -- 96
2019-12-01 01:00:00 6.6 3 Oeste 8 Oeste 0 -- -- 96
2019-12-01 00:00:00 6.7 3 Sudeste 8 Oeste 0 -- -- 95
2019-11-30 23:00:00 7.2 2 Oeste 8 Sur 0 -- -- 95
2019-11-30 22:00:00 8.1 6 Noroeste 10 Norte 0 -- -- 94
2019-11-30 21:00:00 8.5 0 Calma 7 Noroeste 0 -- -- 93
2019-11-30 20:00:00 9.5 2 Oeste 8 Norte 0 -- -- 91
2019-11-30 19:00:00 11.1 5 Noroeste 11 Noroeste 0 -- -- 88
2019-11-30 18:00:00 13.5 0 Calma 7 Este 0 -- -- 79
2019-11-30 17:00:00 16.6 5 Sudeste 15 Sudeste 0 -- -- 73
2019-11-30 16:00:00 18.6 9 Sudeste 23 Sudeste 0 -- -- 62
2019-11-30 15:00:00 19.6 14 Sudeste 22 Sudeste 0 -- -- 59
2019-11-30 14:00:00 20.4 12 Sur 22 Sudeste 0 -- -- 51
2019-11-30 13:00:00 19.5 6 Sudeste 15 Sudeste 0 -- -- 53
2019-11-30 12:00:00 18.5 4 Sudeste 10 Sur 0 -- -- 54
2019-11-30 11:00:00 16 0 Calma 5 Sudeste 0 -- -- 61
2019-11-30 10:00:00 13.1 2 Sudeste 5 Sudeste 0 -- -- 70
2019-11-30 09:00:00 7.9 0 Calma 4 Oeste 0 -- -- 92
2019-11-30 08:00:00 5.9 2 Norte 4 Nordeste 0 -- -- 92
2019-11-30 07:00:00 6.6 0 Calma 3 Sudoeste 0 -- -- 93
2019-11-30 06:00:00 7.5 0 Calma 8 Norte 0 -- -- 89
2019-11-30 05:00:00 8.2 0 Calma 4 Este 0 -- -- 86
2019-11-30 04:00:00 10 0 Calma 2 Noroeste 0 -- -- 81
2019-11-30 03:00:00 10.7 0 Calma 3 Oeste 0 -- -- 79
2019-11-30 02:00:00 11.7 2 Sudeste 5 Norte 0 -- -- 76
2019-11-30 01:00:00 11.3 0 Calma 5 Norte 0 -- -- 78
2019-11-30 00:00:00 11.6 4 Norte 7 Norte 0 -- -- 77
2019-11-29 23:00:00 11.9 2 Noroeste 5 Sudeste 0 -- -- 75
2019-11-29 22:00:00 12.4 4 Noroeste 5 Noroeste 0 -- -- 74
2019-11-29 21:00:00 12.6 0 Calma 4 Norte 0 -- -- 71
2019-11-29 20:00:00 13.2 3 Oeste 6 Noroeste 0 -- -- 69
2019-11-29 19:00:00 13.9 0 Calma 8 Noroeste 0 -- -- 67
2019-11-29 18:00:00 15.1 4 Sudoeste 12 Sur 0 -- -- 62
2019-11-29 17:00:00 18.2 10 Sudoeste 19 Sudoeste 0 -- -- 51
2019-11-29 16:00:00 19.7 10 Sudoeste 22 Sudoeste 0 -- -- 46
2019-11-29 15:00:00 22.6 13 Sudeste 22 Sur 0 -- -- 40
2019-11-29 14:00:00 23.6 11 Sur 23 Sudeste 0 -- -- 38
2019-11-29 13:00:00 23.4 12 Sur 18 Sur 0 -- -- 40
2019-11-29 12:00:00 20.8 4 Sudeste 10 Sur 0 -- -- 45
2019-11-29 11:00:00 18.2 2 Sudoeste 9 Oeste 0 -- -- 54
2019-11-29 10:00:00 15.6 7 Oeste 12 Oeste 0 -- -- 60
2019-11-29 09:00:00 14.5 6 Noroeste 10 Sudoeste 0 -- -- 62
2019-11-29 08:00:00 13.8 5 Sudoeste 15 Este 0 -- -- 61
2019-11-29 07:00:00 12.1 5 Nordeste 12 Sudeste 0 -- -- 65
2019-11-29 06:00:00 10.6 4 Este 12 Este 0 -- -- 69
2019-11-29 05:00:00 10.9 6 Sudoeste 13 Oeste 0 -- -- 68
2019-11-29 04:00:00 11.4 4 Oeste 8 Oeste 0 -- -- 65
2019-11-29 03:00:00 13.3 3 Norte 25 Este 0 -- -- 58
2019-11-29 02:00:00 12.4 3 Este 9 Norte 0 -- -- 61
2019-11-29 01:00:00 12.9 0 Calma 10 Oeste 0 -- -- 59
2019-11-29 00:00:00 14.7 4 Sudoeste 14 Noroeste 0 -- -- 52
2019-11-28 23:00:00 15.7 10 Norte 21 Norte 0 -- -- 48
2019-11-28 22:00:00 14.2 7 Norte 12 Noroeste 0 -- -- 51
2019-11-28 21:00:00 11.8 3 Sudoeste 6 Norte 0 -- -- 66
2019-11-28 20:00:00 12 3 Oeste 9 Sudeste 0 -- -- 65
2019-11-28 19:00:00 13.1 4 Oeste 9 Sur 0 -- -- 62
2019-11-28 18:00:00 14.6 3 Noroeste 9 Noroeste 0 -- -- 57
2019-11-28 17:00:00 16.9 4 Noroeste 5 Noroeste 0 -- -- 51
2019-11-28 16:00:00 18.8 3 Sudeste 12 Sudeste 0 -- -- 44
2019-11-28 15:00:00 20.1 9 Sur 14 Sur 0 -- -- 40
2019-11-28 14:00:00 20.9 4 Sudeste 13 Este 0 -- -- 37
2019-11-28 13:00:00 20.5 3 Este 11 Sudoeste 0 -- -- 38
2019-11-28 12:00:00 18 2 Nordeste 8 Este 0 -- -- 43
2019-11-28 11:00:00 15 4 Nordeste 10 Nordeste 0 -- -- 50
2019-11-28 10:00:00 13.2 3 Sudoeste 11 Oeste 0 -- -- 56
2019-11-28 09:00:00 9 2 Oeste 9 Norte 0 -- -- 70
2019-11-28 08:00:00 6.7 4 Nordeste 12 Norte 0 -- -- 73
2019-11-28 07:00:00 7.9 3 Oeste 11 Sur 0 -- -- 68
2019-11-28 06:00:00 9.9 4 Nordeste 21 Sudoeste 0 -- -- 61
2019-11-28 05:00:00 13.5 12 Norte 36 Norte 0 -- -- 51
2019-11-28 04:00:00 8.8 5 Sur 13 Este 0 -- -- 65
2019-11-28 03:00:00 7.8 3 Sur 13 Oeste 0 -- -- 68
2019-11-28 02:00:00 8.5 8 Nordeste 14 Este 0 -- -- 66
2019-11-28 01:00:00 10.5 3 Norte 10 Noroeste 0 -- -- 58
2019-11-28 00:00:00 12 3 Oeste 15 Norte 0 -- -- 53
2019-11-27 23:00:00 13.8 10 Noroeste 20 Noroeste 0 -- -- 49
2019-11-27 22:00:00 13.9 11 Oeste 20 Oeste 0 -- -- 47
2019-11-27 21:00:00 11.7 5 Nordeste 15 Noroeste 0 -- -- 56
2019-11-27 20:00:00 11.6 4 Nordeste 15 Oeste 0 -- -- 61
2019-11-27 19:00:00 12.2 4 Noroeste 12 Sur 0 -- -- 60
2019-11-27 18:00:00 15.8 3 Sur 21 Noroeste 0 -- -- 52
2019-11-27 17:00:00 19 11 Oeste 15 Oeste 0 -- -- 42
2019-11-27 16:00:00 20.1 4 Este 12 Este 0 -- -- 37
2019-11-27 15:00:00 20.6 3 Este 14 Oeste 0 -- -- 37
2019-11-27 14:00:00 22.1 11 Sudoeste 18 Sudoeste 0 -- -- 36
2019-11-27 06:00:00 -- -- -- -- -- -- -- -- --
2019-11-27 05:00:00 -- -- -- -- -- -- -- -- --
2019-11-27 04:00:00 -- -- -- -- -- -- -- -- --
2019-11-27 03:00:00 13 3 Noroeste 11 Sudoeste 0 -- -- 73
2019-11-27 02:00:00 14 7 Sur 24 Oeste 0 -- -- 72
2019-11-27 01:00:00 14.3 9 Sur 24 Oeste 0 -- -- 70
2019-11-27 00:00:00 14.6 16 Oeste 32 Oeste 0 -- -- 71
2019-11-26 23:00:00 12.5 3 Sur 14 Norte 0 -- -- 70
2019-11-26 22:00:00 11.2 5 Oeste 13 Norte 0 -- -- 74
2019-11-26 21:00:00 11 4 Oeste 12 Oeste 0 -- -- 75
2019-11-26 20:00:00 11.2 3 Sudeste 9 Noroeste 0 -- -- 73
2019-11-26 19:00:00 12.5 0 Calma 13 Norte 0 -- -- 67
2019-11-26 18:00:00 14.7 10 Noroeste 13 Noroeste 0 -- -- 61
2019-11-26 17:00:00 18.8 8 Sudeste 14 Sur 0 -- -- 49
2019-11-26 16:00:00 21.2 9 Sudoeste 17 Sur 0 -- -- 43
2019-11-26 15:00:00 22.2 12 Sur 21 Sudeste 0 -- -- 42
2019-11-26 14:00:00 22.7 5 Sudeste 14 Sudeste 0 -- -- 37
2019-11-26 13:00:00 21.4 3 Sudeste 10 Sudeste 0 -- -- 39
2019-11-26 12:00:00 19.2 2 Noroeste 6 Sur 0 -- -- 44
2019-11-26 11:00:00 15.8 4 Sur 7 Sur 0 -- -- 54
2019-11-26 10:00:00 11.8 3 Sur 4 Sudoeste 0 -- -- 67
2019-11-26 09:00:00 6.9 0 Calma 3 Noroeste 0 -- -- 87
2019-11-26 08:00:00 4.5 0 Calma 5 Norte 0 -- -- 90
2019-11-26 07:00:00 4.5 0 Calma 4 Sudeste 0 -- -- 88
2019-11-26 06:00:00 4.6 0 Calma 4 Noroeste 0 -- -- 88
2019-11-26 05:00:00 4.7 0 Calma 3 Oeste 0 -- -- 86
2019-11-26 04:00:00 5 2 Oeste 3 Oeste 0 -- -- 85
2019-11-26 03:00:00 5.7 2 Oeste 4 Sur 0 -- -- 83
2019-11-26 02:00:00 6.1 3 Sudoeste 6 Norte 0 -- -- 80
2019-11-26 01:00:00 6.8 2 Sudoeste 6 Norte 0 -- -- 78
2019-11-26 00:00:00 7.8 4 Norte 7 Oeste 0 -- -- 75
2019-11-25 23:00:00 7.9 3 Oeste 9 Noroeste 0 -- -- 73
2019-11-25 22:00:00 8.8 0 Calma 8 Sudeste 0 -- -- 70
2019-11-25 21:00:00 9.6 4 Noroeste 6 Sudoeste 0 -- -- 67
2019-11-25 20:00:00 11.3 2 Noroeste 9 Oeste 0 -- -- 62
2019-11-25 19:00:00 13.1 4 Oeste 16 Noroeste 0 -- -- 56
2019-11-25 18:00:00 15.5 7 Norte 29 Noroeste 0 -- -- 50
2019-11-25 17:00:00 17.6 10 Noroeste 24 Noroeste 0 -- -- 45
2019-11-25 16:00:00 19.1 12 Noroeste 32 Noroeste 0 -- -- 42
2019-11-25 15:00:00 19.9 18 Noroeste 36 Noroeste 0 -- -- 40
2019-11-25 14:00:00 20.4 15 Norte 32 Norte 0 -- -- 38
2019-11-25 13:00:00 20.1 16 Noroeste 41 Noroeste 0 -- -- 40
2019-11-25 12:00:00 19.2 23 Norte 45 Noroeste 0 -- -- 44
2019-11-25 11:00:00 17.1 10 Noroeste 27 Noroeste 0 -- -- 49
2019-11-25 10:00:00 11.3 4 Este 15 Oeste 0 -- -- 63
2019-11-25 09:00:00 6.6 3 Sur 9 Noroeste 0 -- -- 77
2019-11-25 08:00:00 4.5 3 Oeste 15 Oeste 0 -- -- 81
2019-11-25 07:00:00 4.6 4 Noroeste 7 Oeste 0 -- -- 80
2019-11-25 06:00:00 5.9 2 Oeste 15 Noroeste 0 -- -- 75
2019-11-25 05:00:00 4.7 5 Sudoeste 13 Oeste 0 -- -- 77
2019-11-25 04:00:00 5 0 Calma 9 Norte 0 -- -- 76
2019-11-25 03:00:00 4.2 3 Sudoeste 6 Oeste 0 -- -- 78
2019-11-25 02:00:00 5.7 2 Sudeste 8 Nordeste 0 -- -- 72
2019-11-25 01:00:00 4.9 0 Calma 10 Sudoeste 0 -- -- 74
2019-11-25 00:00:00 4.6 3 Sudoeste 8 Sudeste 0 -- -- 73
2019-11-24 23:00:00 5.7 2 Oeste 8 Sudoeste 0 -- -- 69
2019-11-24 22:00:00 7.9 4 Noroeste 8 Oeste 0 -- -- 62
2019-11-24 21:00:00 9.9 5 Noroeste 17 Noroeste 0 -- -- 55
2019-11-24 20:00:00 11 11 Noroeste 28 Noroeste 0 -- -- 53
2019-11-24 19:00:00 11.5 13 Noroeste 21 Noroeste 0 -- -- 52
2019-11-24 18:00:00 12.2 11 Noroeste 27 Noroeste 0 -- -- 49
2019-11-24 17:00:00 14.4 13 Noroeste 25 Norte 0 -- -- 44
2019-11-24 16:00:00 15.6 14 Noroeste 43 Noroeste 0 -- -- 41
2019-11-24 15:00:00 15.7 28 Norte 62 Norte 0 -- -- 41
2019-11-24 14:00:00 15.6 42 Norte 69 Noroeste 0 -- -- 40
2019-11-24 13:00:00 14.4 42 Norte 72 Norte 0 -- -- 41
2019-11-24 12:00:00 14.1 35 Noroeste 76 Norte 0 -- -- 42
2019-11-24 11:00:00 13.8 37 Norte 71 Norte 0 -- -- 42
2019-11-24 10:00:00 12.1 49 Norte 78 Norte 0 -- -- 47
2019-11-24 09:00:00 11 41 Norte 88 Norte 0 -- -- 51
2019-11-24 08:00:00 10 10 Nordeste 47 Norte 0 -- -- 53
2019-11-24 07:00:00 10.2 30 Norte 63 Norte 0 -- -- 52
2019-11-24 06:00:00 10.3 12 Norte 49 Noroeste 0 -- -- 52
2019-11-24 05:00:00 10.3 5 Noroeste 40 Norte 0 -- -- 49
2019-11-24 04:00:00 10.4 14 Noroeste 46 Noroeste 0 -- -- 50
2019-11-24 03:00:00 11 17 Noroeste 64 Noroeste 0 -- -- 50
2019-11-24 02:00:00 11.1 22 Norte 55 Norte 0 -- -- 49
2019-11-24 01:00:00 11.7 18 Norte 58 Noroeste 0 -- -- 47
2019-11-24 00:00:00 11.3 16 Norte 86 Noroeste 0 -- -- 49
2019-11-23 23:00:00 11.4 43 Norte 79 Norte 0 -- -- 51
2019-11-23 22:00:00 11.3 34 Norte 64 Norte 0 -- -- 51
2019-11-23 21:00:00 11.4 24 Norte 47 Noroeste 0 -- -- 50
2019-11-23 20:00:00 11.8 20 Norte 57 Norte 0 -- -- 47
2019-11-23 19:00:00 11.9 30 Noroeste 57 Noroeste 0 -- -- 46
2019-11-23 18:00:00 12 24 Noroeste 63 Noroeste 0 -- -- 47
2019-11-23 17:00:00 12.7 28 Norte 60 Noroeste 0 -- -- 44
2019-11-23 16:00:00 12.8 26 Noroeste 66 Noroeste 0 -- -- 46
2019-11-23 15:00:00 12.6 23 Noroeste 54 Noroeste 0 -- -- 47
2019-11-23 14:00:00 12.5 20 Norte 48 Norte 0 -- -- 50
2019-11-23 13:00:00 12.3 5 Norte 45 Nordeste 0 -- -- 53
2019-11-23 12:00:00 12.8 16 Noroeste 40 Norte 0 -- -- 52
2019-11-23 11:00:00 11.8 16 Norte 50 Noroeste 0 -- -- 55
2019-11-23 10:00:00 11.6 15 Noroeste 38 Noroeste 0 -- -- 56
2019-11-23 09:00:00 9.2 3 Sudoeste 21 Oeste 0 -- -- 72
2019-11-23 08:00:00 7.3 4 Oeste 11 Oeste 0 -- -- 79
2019-11-23 07:00:00 8.5 3 Noroeste 10 Este 0 -- -- 74
2019-11-23 06:00:00 9.6 4 Nordeste 27 Este 0 -- -- 67
2019-11-23 05:00:00 11.2 12 Nordeste 57 Oeste 0 -- -- 63
2019-11-23 04:00:00 10.9 8 Norte 35 Sudoeste 0 -- -- 67
2019-11-23 03:00:00 10.9 6 Noroeste 40 Noroeste 0 -- -- 67
2019-11-23 02:00:00 8.8 5 Este 18 Nordeste 0 -- -- 96
2019-11-23 01:00:00 8.6 3 Nordeste 17 Noroeste 0 -- -- 97
2019-11-23 00:00:00 9.2 6 Norte 19 Sudeste 0.2 -- -- 96
2019-11-22 23:00:00 10.5 13 Sudeste 19 Sudeste 0 -- -- 97
2019-11-22 22:00:00 11 10 Este 17 Este 0 -- -- 98
2019-11-22 21:00:00 10.9 4 Nordeste 9 Este 0 -- -- 98
2019-11-22 20:00:00 10.4 2 Este 9 Nordeste 0.2 -- -- 97
2019-11-22 19:00:00 10.4 5 Nordeste 8 Nordeste 0.6 -- -- 96
2019-11-22 18:00:00 10.9 0 Calma 6 Sudoeste 0.4 -- -- 93
2019-11-22 17:00:00 11.6 4 Sur 15 Sudoeste 0.6 -- -- 85
2019-11-22 16:00:00 12.7 6 Sudoeste 19 Sudoeste 0 -- -- 72
2019-11-22 15:00:00 13.7 15 Sur 27 Sur 0 -- -- 67
2019-11-22 14:00:00 14.6 14 Sur 27 Sur 0 -- -- 67
2019-11-22 13:00:00 14.1 13 Sur 34 Sur 0 -- -- 60
2019-11-22 12:00:00 15.2 10 Sur 18 Sudeste 0 -- -- 55
2019-11-22 11:00:00 10.9 4 Norte 6 Norte 0 -- -- 64
2019-11-22 10:00:00 8.7 2 Sudeste 4 Sudeste 0 -- -- 72
2019-11-22 09:00:00 4.4 3 Sudoeste 5 Norte 0 -- -- 88
2019-11-22 08:00:00 2.6 2 Oeste 3 Sudoeste 0 -- -- 91
2019-11-22 07:00:00 3.1 0 Calma 4 Norte 0 -- -- 91
2019-11-22 06:00:00 2.6 0 Calma 6 Norte 0 -- -- 92
2019-11-22 05:00:00 3 2 Nordeste 4 Sudoeste 0 -- -- 90
2019-11-22 04:00:00 3.9 2 Noroeste 5 Oeste 0 -- -- 88
2019-11-22 03:00:00 5.1 0 Calma 5 Oeste 0 -- -- 85
2019-11-22 02:00:00 5.3 0 Calma 9 Norte 0 -- -- 83
2019-11-22 01:00:00 5.1 3 Oeste 5 Oeste 0 -- -- 84
2019-11-22 00:00:00 5.8 0 Calma 9 Noroeste 0 -- -- 83
2019-11-21 23:00:00 7.2 3 Sudoeste 5 Sudoeste 0 -- -- 77
2019-11-21 22:00:00 8.4 0 Calma 4 Noroeste 0 -- -- 76
2019-11-21 21:00:00 9 0 Calma 4 Oeste 0 -- -- 73
2019-11-21 20:00:00 9.8 2 Sur 8 Noroeste 0 -- -- 70
2019-11-21 19:00:00 10.6 0 Calma 5 Norte 0 -- -- 68
2019-11-21 18:00:00 12.1 3 Norte 11 Nordeste 0 -- -- 63
2019-11-21 17:00:00 13.3 6 Nordeste 13 Nordeste 0 -- -- 59
2019-11-21 16:00:00 14.6 6 Este 19 Sudeste 0 -- -- 49
2019-11-21 15:00:00 15.6 13 Sudeste 26 Sudeste 0 -- -- 46
2019-11-21 14:00:00 16.5 10 Sudeste 17 Sudoeste 0 -- -- 43
2019-11-21 13:00:00 15.3 6 Sudeste 17 Sudeste 0 -- -- 46
2019-11-21 12:00:00 14.2 3 Sudeste 9 Este 0 -- -- 47
2019-11-21 11:00:00 12.4 0 Calma 5 Sudeste 0 -- -- 55
2019-11-21 10:00:00 7.9 4 Este 7 Este 0 -- -- 71
2019-11-21 09:00:00 3.2 3 Sudoeste 6 Oeste 0 -- -- 96
2019-11-21 08:00:00 0.7 3 Nordeste 6 Norte 0 -- -- 95
2019-11-21 07:00:00 0.4 4 Sur 9 Norte 0 -- -- 93
2019-11-21 06:00:00 1.1 0 Calma 6 Oeste 0 -- -- 93
2019-11-21 05:00:00 1.8 3 Sudoeste 7 Noroeste 0 -- -- 92
2019-11-21 04:00:00 2.7 0 Calma 7 Sudoeste 0 -- -- 91
2019-11-21 03:00:00 3.8 3 Oeste 5 Noroeste 0 -- -- 89
2019-11-21 02:00:00 5 0 Calma 4 Este 0 -- -- 87
2019-11-21 01:00:00 5.9 0 Calma 4 Noroeste 0 -- -- 85
2019-11-21 00:00:00 5.9 0 Calma 3 Nordeste 0 -- -- 84
2019-11-20 23:00:00 6.1 0 Calma 4 Oeste 0 -- -- 84
2019-11-20 22:00:00 6.4 3 Oeste 4 Oeste 0 -- -- 82
2019-11-20 21:00:00 6.7 0 Calma 3 Nordeste 0 -- -- 80
2019-11-20 20:00:00 6.2 0 Calma 8 Noroeste 0 -- -- 82
2019-11-20 19:00:00 6.1 2 Sur 8 Oeste 0 -- -- 79
2019-11-20 18:00:00 8.6 4 Sudoeste 14 Sudoeste 0 -- -- 71
2019-11-20 17:00:00 12.3 9 Sur 19 Este 0 -- -- 60
2019-11-20 16:00:00 12.5 13 Sudeste 20 Sudeste 0 -- -- 61
2019-11-20 15:00:00 14.2 8 Sudeste 22 Sudeste 0 -- -- 49
2019-11-20 14:00:00 15.3 10 Sudeste 20 Sudeste 0 -- -- 48
2019-11-20 13:00:00 13.8 7 Sudeste 15 Sudeste 0 -- -- 54
2019-11-20 12:00:00 12.4 5 Este 11 Este 0 -- -- 64
2019-11-20 11:00:00 10.4 0 Calma 6 Sur 0 -- -- 59
2019-11-20 10:00:00 7.7 3 Sur 5 Sur 0 -- -- 64
2019-11-20 09:00:00 3.9 0 Calma 3 Oeste 0 -- -- 80
2019-11-20 08:00:00 1.5 0 Calma 3 Oeste 0 -- -- 85
2019-11-20 07:00:00 1.7 0 Calma 5 Oeste 0 -- -- 84
2019-11-20 06:00:00 0.7 0 Calma 4 Norte 0 -- -- 87
2019-11-20 05:00:00 0.4 3 Oeste 5 Oeste 0 -- -- 87
2019-11-20 04:00:00 0.5 0 Calma 4 Sur 0 -- -- 85
2019-11-20 03:00:00 1 2 Norte 3 Norte 0 -- -- 85
2019-11-20 02:00:00 0.5 2 Oeste 5 Oeste 0 -- -- 86
2019-11-20 01:00:00 0.5 2 Sudoeste 4 Norte 0 -- -- 82
2019-11-20 00:00:00 1.2 2 Oeste 5 Norte 0 -- -- 81
2019-11-19 23:00:00 1.7 0 Calma 4 Noroeste 0 -- -- 78
2019-11-19 22:00:00 2 0 Calma 4 Noroeste 0 -- -- 75
2019-11-19 21:00:00 2.7 4 Oeste 6 Oeste 0 -- -- 73
2019-11-19 20:00:00 3.5 3 Sur 9 Noroeste 0 -- -- 70
2019-11-19 19:00:00 5.6 5 Noroeste 6 Norte 0 -- -- 63
2019-11-19 18:00:00 8.8 3 Sur 17 Sudoeste 0 -- -- 53
2019-11-19 17:00:00 12.2 9 Sudoeste 26 Sur 0 -- -- 43
2019-11-19 16:00:00 14.5 5 Este 12 Sudeste 0 -- -- 34
2019-11-19 15:00:00 15.4 6 Sur 12 Sudeste 0 -- -- 32
2019-11-19 14:00:00 14.6 7 Sudeste 22 Sudeste 0 -- -- 32
2019-11-19 13:00:00 14.8 7 Sur 22 Sur 0 -- -- 32
2019-11-19 12:00:00 14.1 13 Sur 22 Sur 0 -- -- 34
2019-11-19 11:00:00 11.8 8 Este 12 Sudeste 0 -- -- 42
2019-11-19 10:00:00 10.1 4 Sudeste 7 Este 0 -- -- 47
2019-11-19 09:00:00 5.8 3 Sudeste 11 Norte 0 -- -- 57
2019-11-19 08:00:00 1.9 0 Calma 9 Sudoeste 0 -- -- 66
2019-11-19 07:00:00 5.8 10 Oeste 22 Norte 0 -- -- 54
2019-11-19 06:00:00 2.7 3 Oeste 15 Noroeste 0 -- -- 60
2019-11-19 05:00:00 4.6 8 Noroeste 19 Noroeste 0 -- -- 56
2019-11-19 04:00:00 3.5 4 Oeste 20 Noroeste 0 -- -- 60
2019-11-19 03:00:00 5.8 9 Noroeste 21 Noroeste 0 -- -- 54
2019-11-19 02:00:00 3.8 6 Sudoeste 14 Oeste 0 -- -- 58
2019-11-19 01:00:00 4.8 8 Noroeste 13 Oeste 0 -- -- 55
2019-11-19 00:00:00 6.2 4 Oeste 21 Norte 0 -- -- 52
2019-11-18 23:00:00 6.9 9 Norte 23 Norte 0 -- -- 52
2019-11-18 22:00:00 6.8 6 Norte 27 Norte 0 -- -- 52
2019-11-18 21:00:00 7.3 9 Noroeste 16 Oeste 0 -- -- 50
2019-11-18 20:00:00 8.5 11 Norte 45 Norte 0 -- -- 48
2019-11-18 19:00:00 8.9 23 Norte 43 Norte 0 -- -- 47
2019-11-18 18:00:00 8.9 5 Noroeste 35 Norte 0 -- -- 50
2019-11-18 17:00:00 10.6 19 Norte 44 Norte 0 -- -- 46
2019-11-18 16:00:00 11.8 26 Norte 45 Noroeste 0 -- -- 44
2019-11-18 15:00:00 12.3 21 Norte 40 Noroeste 0 -- -- 42
2019-11-18 14:00:00 12.4 21 Norte 48 Norte 0 -- -- 41
2019-11-18 13:00:00 12.2 24 Norte 47 Norte 0 -- -- 42
2019-11-18 12:00:00 11.6 21 Norte 48 Norte 0 -- -- 46
2019-11-18 11:00:00 11.3 21 Nordeste 42 Norte 0 -- -- 45
2019-11-18 10:00:00 11.2 20 Norte 52 Norte 0 -- -- 43
2019-11-18 09:00:00 9.1 7 Este 27 Norte 0 -- -- 57
2019-11-18 08:00:00 4.1 4 Norte 26 Oeste 0 -- -- 78
2019-11-18 07:00:00 2.8 3 Este 13 Norte 0 -- -- 80
2019-11-18 06:00:00 4.5 3 Sudeste 15 Noroeste 0 -- -- 76
2019-11-18 05:00:00 3.7 2 Noroeste 5 Noroeste 0 -- -- 84
2019-11-18 04:00:00 4.3 4 Nordeste 12 Norte 0 -- -- 80
2019-11-18 03:00:00 5.9 6 Nordeste 12 Nordeste 0 -- -- 81
2019-11-18 02:00:00 7.7 2 Este 8 Norte 0 -- -- 76
2019-11-18 01:00:00 8.1 2 Sur 7 Oeste 0 -- -- 74
2019-11-18 00:00:00 8.2 4 Noroeste 6 Norte 0 -- -- 73
2019-11-17 23:00:00 8.8 5 Norte 10 Este 0 -- -- 71
2019-11-17 22:00:00 8.8 3 Sudoeste 9 Sur 0 -- -- 69
2019-11-17 21:00:00 9 4 Nordeste 10 Noroeste 0 -- -- 67
2019-11-17 20:00:00 9.8 3 Este 13 Sudoeste 0 -- -- 65
2019-11-17 19:00:00 11.9 7 Oeste 27 Noroeste 0 -- -- 56
2019-11-17 18:00:00 13.9 8 Sudoeste 18 Sur 0 -- -- 51
2019-11-17 17:00:00 15.7 4 Sur 21 Norte 0 -- -- 43
2019-11-17 16:00:00 15.5 0 Calma 13 Sudeste 0 -- -- 41
2019-11-17 15:00:00 16.8 8 Este 22 Sudeste 0 -- -- 37
2019-11-17 14:00:00 17.6 9 Sudeste 15 Sur 0 -- -- 35
2019-11-17 13:00:00 16 7 Sur 13 Sur 0 -- -- 38
2019-11-17 12:00:00 13 4 Este 17 Sudeste 0 -- -- 42
2019-11-17 11:00:00 13.2 6 Sur 21 Noroeste 0 -- -- 42
2019-11-17 10:00:00 11.4 12 Norte 25 Noroeste 0 -- -- 45
2019-11-17 09:00:00 9 7 Nordeste 21 Norte 0 -- -- 49
2019-11-17 08:00:00 7.2 8 Este 22 Este 0 -- -- 52
2019-11-17 07:00:00 7.9 12 Norte 28 Noroeste 0 -- -- 50
2019-11-17 06:00:00 5.7 9 Sur 17 Sudeste 0 -- -- 56
2019-11-17 05:00:00 5 4 Noroeste 12 Oeste 0 -- -- 55
2019-11-17 04:00:00 5.3 9 Noroeste 22 Oeste 0 -- -- 55
2019-11-17 03:00:00 4.4 3 Noroeste 18 Noroeste 0 -- -- 61
2019-11-17 02:00:00 2.1 2 Sudoeste 9 Noroeste 0 -- -- 70
2019-11-17 01:00:00 2.6 6 Oeste 10 Sudoeste 0 -- -- 67
2019-11-17 00:00:00 3.1 3 Nordeste 11 Sudoeste 0 -- -- 66
2019-11-16 23:00:00 3.9 4 Sudoeste 13 Sur 0 -- -- 62
2019-11-16 22:00:00 3.4 0 Calma 12 Norte 0 -- -- 66
2019-11-16 21:00:00 3.8 3 Nordeste 11 Sur 0 -- -- 65
2019-11-16 20:00:00 5 3 Sudoeste 11 Noroeste 0 -- -- 58
2019-11-16 19:00:00 8.8 11 Norte 23 Norte 0 -- -- 47
2019-11-16 18:00:00 9.6 10 Noroeste 22 Noroeste 0 -- -- 43
2019-11-16 17:00:00 12.5 8 Sudoeste 21 Oeste 0 -- -- 45
2019-11-16 16:00:00 13.6 14 Noroeste 30 Noroeste 0 -- -- 24
2019-11-16 15:00:00 13.7 12 Norte 31 Norte 0 -- -- 30
2019-11-16 14:00:00 13.4 18 Norte 31 Norte 0 -- -- 28
2019-11-16 13:00:00 12.8 13 Nordeste 26 Norte 0 -- -- 32
2019-11-16 12:00:00 12.3 9 Norte 31 Norte 0 -- -- 36
2019-11-16 11:00:00 11.5 9 Nordeste 27 Norte 0 -- -- 38
2019-11-16 10:00:00 9.7 12 Nordeste 34 Norte 0 -- -- 42
2019-11-16 09:00:00 7.6 17 Norte 43 Norte 0 -- -- 51
2019-11-16 08:00:00 5.9 18 Norte 36 Noroeste 0 -- -- 60
2019-11-16 07:00:00 1.3 4 Noroeste 13 Noroeste 0 -- -- 79
2019-11-16 06:00:00 -1 2 Sudoeste 9 Noroeste 0 -- -- 89
2019-11-16 05:00:00 -1.5 3 Sudoeste 6 Sudoeste 0 -- -- 88
2019-11-16 04:00:00 0.3 3 Noroeste 8 Oeste 0 -- -- 85
2019-11-16 03:00:00 -0.1 0 Calma 9 Nordeste 0 -- -- 82
2019-11-16 02:00:00 0.8 5 Norte 8 Este 0 -- -- 82
2019-11-16 01:00:00 1.1 0 Calma 9 Norte 0 -- -- 81
2019-11-16 00:00:00 1.1 3 Oeste 8 Noroeste 0 -- -- 79